Time;durP1;ratioP1;P1;durP2;ratioP2;P2;SDS_P1;SDS_P2;PMS_P1;PMS_P2;Temp;Humidity;BMP_temperature;BMP_pressure;BME280_temperature;BME280_humidity;BME280_pressure;Samples;Min_cycle;Max_cycle;Signal;HPM_P1;HPM_P2
2022/01/28 00:04:50;;;;;;;12.30;3.47;;;6.50;99.90;;;;;;4961932;28;20440;-80
2022/01/28 00:07:16;;;;;;;15.73;4.85;;;6.50;99.90;;;;;;4971974;28;20129;-81
2022/01/28 00:09:41;;;;;;;18.17;4.38;;;6.50;99.90;;;;;;4953638;28;20082;-80
2022/01/28 00:12:08;;;;;;;16.40;4.20;;;6.40;99.90;;;;;;4956681;28;20403;-80
2022/01/28 00:14:44;;;;;;;11.88;3.60;;;6.20;99.90;;;;;;4946826;28;20058;-80
2022/01/28 00:38:55;;;;;;;15.27;4.53;;;6.00;99.90;;;;;;4967882;28;20043;-80
2022/01/28 00:41:21;;;;;;;16.02;4.45;;;6.00;99.90;;;;;;4951252;28;20054;-78
2022/01/28 00:43:47;;;;;;;16.63;4.22;;;6.00;99.90;;;;;;4951142;28;20398;-79
2022/01/28 00:46:13;;;;;;;16.13;4.55;;;6.00;99.90;;;;;;4967272;28;20039;-80
2022/01/28 00:48:39;;;;;;;14.88;4.15;;;6.10;99.90;;;;;;4971669;28;20661;-79
2022/01/28 00:51:05;;;;;;;18.17;4.43;;;6.10;99.90;;;;;;4946980;28;20051;-80
2022/01/28 00:53:31;;;;;;;17.42;3.90;;;6.10;99.90;;;;;;4968340;28;20046;-80
2022/01/28 00:55:57;;;;;;;14.52;4.07;;;6.10;99.90;;;;;;4951364;28;20058;-78
2022/01/28 00:58:23;;;;;;;10.82;3.25;;;7.00;99.90;;;;;;4970205;28;20056;-80
2022/01/28 01:00:49;;;;;;;17.63;3.50;;;6.10;99.90;;;;;;4963394;28;20069;-80
2022/01/28 01:03:15;;;;;;;7.40;2.72;;;5.90;99.90;;;;;;4951272;28;20480;-81
2022/01/28 01:05:41;;;;;;;8.88;2.70;;;5.80;99.90;;;;;;4951967;28;20054;-79
2022/01/28 01:08:07;;;;;;;14.20;3.45;;;5.70;99.90;;;;;;4968451;28;20110;-79
2022/01/28 01:10:33;;;;;;;10.52;3.30;;;5.60;99.90;;;;;;4951752;28;20057;-79
2022/01/28 01:12:59;;;;;;;12.38;3.53;;;5.70;99.90;;;;;;4958036;28;20483;-80
2022/01/28 01:15:30;;;;;;;15.88;4.20;;;5.60;99.90;;;;;;4966569;28;20039;-80
2022/01/28 01:23:21;;;;;;;13.38;3.90;;;5.70;99.90;;;;;;4969731;28;20065;-80
2022/01/28 01:25:52;;;;;;;16.30;3.95;;;5.70;99.90;;;;;;4949804;28;20487;-80
2022/01/28 01:28:21;;;;;;;16.10;4.40;;;5.80;99.90;;;;;;4952627;28;20058;-79
2022/01/28 01:30:47;;;;;;;14.07;3.65;;;5.70;99.90;;;;;;4951281;28;20054;-78
2022/01/28 01:33:15;;;;;;;16.77;3.92;;;5.80;99.90;;;;;;4958558;28;20085;-80
2022/01/28 01:35:41;;;;;;;15.60;4.18;;;5.80;99.90;;;;;;4967463;28;20502;-79
2022/01/28 01:38:09;;;;;;;16.08;4.35;;;5.90;99.90;;;;;;4950628;28;20053;-80
2022/01/28 01:40:45;;;;;;;14.95;4.93;;;6.00;99.90;;;;;;4950730;28;20047;-80
2022/01/28 01:45:58;;;;;;;13.77;3.80;;;6.00;99.90;;;;;;4970770;28;20495;-79
2022/01/28 01:53:53;;;;;;;20.13;4.20;;;6.20;99.90;;;;;;4967641;28;20133;-80
2022/01/28 01:56:20;;;;;;;14.93;4.25;;;6.10;99.90;;;;;;4967519;28;20173;-80
2022/01/28 01:58:46;;;;;;;12.18;3.10;;;5.90;99.90;;;;;;4951208;28;20047;-80
2022/01/28 02:01:12;;;;;;;11.93;3.50;;;5.80;99.90;;;;;;4946506;28;20093;-80
2022/01/28 02:03:37;;;;;;;14.18;3.58;;;5.70;99.90;;;;;;4950626;28;20051;-80
2022/01/28 02:06:04;;;;;;;9.65;3.22;;;5.60;99.90;;;;;;4948910;28;20476;-79
2022/01/28 02:08:34;;;;;;;8.75;2.75;;;5.60;99.90;;;;;;4967052;28;20047;-79
2022/01/28 02:11:00;;;;;;;11.90;3.20;;;5.60;99.90;;;;;;4944704;28;20054;-79
2022/01/28 02:13:28;;;;;;;13.35;3.13;;;5.60;99.90;;;;;;4951894;28;20047;-80
2022/01/28 02:15:55;;;;;;;11.93;3.22;;;5.50;99.90;;;;;;4962068;28;20046;-80
2022/01/28 02:18:22;;;;;;;12.57;3.30;;;5.60;99.90;;;;;;4949880;28;20047;-80
2022/01/28 02:20:50;;;;;;;13.52;3.38;;;5.20;99.90;;;;;;4950646;28;20053;-80
2022/01/28 02:23:17;;;;;;;11.38;3.45;;;5.50;99.90;;;;;;4952468;28;20078;-80
2022/01/28 02:25:43;;;;;;;13.20;3.50;;;5.60;99.90;;;;;;4949984;28;20454;-80
2022/01/28 02:28:13;;;;;;;14.48;3.50;;;4.90;99.90;;;;;;4969503;28;20190;-81
2022/01/28 02:30:39;;;;;;;12.15;3.90;;;5.60;99.90;;;;;;4967834;28;20085;-80
2022/01/28 02:33:13;;;;;;;17.00;4.03;;;5.60;99.90;;;;;;4953461;28;20078;-80
2022/01/28 02:35:42;;;;;;;12.43;3.38;;;5.60;99.90;;;;;;4952763;28;20091;-80
2022/01/28 02:38:12;;;;;;;11.38;3.45;;;5.60;99.90;;;;;;4954643;28;20045;-80
2022/01/28 02:40:40;;;;;;;10.77;3.33;;;5.50;99.90;;;;;;4971574;28;20173;-79
2022/01/28 02:45:48;;;;;;;12.70;3.50;;;5.60;99.90;;;;;;4955333;28;20059;-80
2022/01/28 02:48:20;;;;;;;15.85;4.63;;;5.60;99.90;;;;;;4969298;28;20034;-79
2022/01/28 02:51:14;;;;;;;16.88;3.90;;;5.60;99.90;;;;;;4948699;28;20039;-80
2022/01/28 02:53:41;;;;;;;15.63;4.05;;;5.60;99.90;;;;;;4966907;28;20050;-79
2022/01/28 02:56:18;;;;;;;18.70;5.03;;;5.70;99.90;;;;;;4952626;28;20522;-80
2022/01/28 02:58:45;;;;;;;18.20;4.75;;;5.70;99.90;;;;;;4950754;28;20046;-80
2022/01/28 03:01:13;;;;;;;21.02;3.80;;;5.70;99.90;;;;;;4968472;28;20403;-80
2022/01/28 03:03:40;;;;;;;18.20;4.25;;;5.80;99.90;;;;;;4969445;28;20066;-80
2022/01/28 03:06:06;;;;;;;18.05;4.50;;;5.80;99.90;;;;;;4965936;28;20109;-80
2022/01/28 03:08:33;;;;;;;13.05;4.82;;;5.80;99.90;;;;;;4971532;28;20134;-80
2022/01/28 03:13:56;;;;;;;13.10;4.22;;;5.90;99.90;;;;;;4948439;28;20047;-79
2022/01/28 03:16:20;;;;;;;13.75;4.53;;;5.80;99.90;;;;;;4972631;28;20050;-80
2022/01/28 03:24:11;;;;;;;14.27;3.38;;;6.10;99.90;;;;;;4934507;28;20047;-80
2022/01/28 03:26:38;;;;;;;12.75;3.88;;;6.20;99.90;;;;;;4953585;28;20100;-80
2022/01/28 03:29:05;;;;;;;11.63;2.83;;;6.10;99.90;;;;;;4971397;28;20100;-80
2022/01/28 03:31:31;;;;;;;9.77;3.30;;;5.90;99.90;;;;;;4954293;28;20375;-79
2022/01/28 03:33:57;;;;;;;10.75;2.83;;;5.80;99.90;;;;;;4948342;28;20055;-80
2022/01/28 03:36:23;;;;;;;12.18;3.05;;;5.60;99.90;;;;;;4954585;28;20161;-80
2022/01/28 03:38:49;;;;;;;14.43;4.30;;;5.70;99.90;;;;;;4949664;28;20134;-79
2022/01/28 03:41:17;;;;;;;17.40;3.80;;;5.70;99.90;;;;;;4968616;28;20495;-80
2022/01/28 03:43:47;;;;;;;14.20;4.13;;;5.70;99.90;;;;;;4955355;28;20066;-80
2022/01/28 03:46:14;;;;;;;16.20;4.00;;;5.60;99.90;;;;;;4973133;28;20439;-80
2022/01/28 03:48:40;;;;;;;15.93;4.35;;;5.60;99.90;;;;;;4957048;28;20495;-79
2022/01/28 03:51:06;;;;;;;14.18;4.13;;;5.60;99.90;;;;;;4951087;28;20039;-80
2022/01/28 03:53:31;;;;;;;14.15;3.75;;;5.70;99.90;;;;;;4951209;28;20054;-79
2022/01/28 03:55:58;;;;;;;8.90;3.30;;;5.70;99.90;;;;;;4970375;28;20046;-80
2022/01/28 03:58:24;;;;;;;10.85;3.70;;;5.90;99.90;;;;;;4970157;28;20050;-79
2022/01/28 04:00:51;;;;;;;12.77;3.63;;;5.80;99.90;;;;;;4950554;28;20398;-80
2022/01/28 04:11:36;;;;;;;15.52;4.65;;;5.60;99.90;;;;;;4968732;28;20087;-80
2022/01/28 04:14:11;;;;;;;12.18;3.53;;;5.70;99.90;;;;;;4968117;28;20553;-80
2022/01/28 04:19:22;;;;;;;18.50;4.68;;;5.70;99.90;;;;;;4970801;28;20495;-80
2022/01/28 04:21:48;;;;;;;13.00;4.00;;;5.70;99.90;;;;;;4956292;28;20109;-80
2022/01/28 04:24:14;;;;;;;12.00;3.80;;;5.70;99.90;;;;;;4953710;28;20046;-80
2022/01/28 04:26:40;;;;;;;10.27;3.45;;;5.70;99.90;;;;;;4969316;28;20487;-80
2022/01/28 04:29:07;;;;;;;11.25;3.47;;;5.70;99.90;;;;;;4953415;28;20058;-79
2022/01/28 04:31:34;;;;;;;19.83;4.57;;;5.10;99.90;;;;;;4949120;28;20051;-79
2022/01/28 04:34:01;;;;;;;15.45;3.42;;;5.70;99.90;;;;;;4972440;28;20094;-79
2022/01/28 04:36:31;;;;;;;11.98;3.20;;;5.70;99.90;;;;;;4949976;28;20059;-80
2022/01/28 04:39:09;;;;;;;12.48;4.00;;;5.70;99.90;;;;;;4969384;28;20563;-80
2022/01/28 04:44:22;;;;;;;13.73;3.83;;;5.80;99.90;;;;;;4968226;28;20125;-80
2022/01/28 04:48:00;;;;;;;11.40;3.65;;;5.80;99.90;;;;;;4972532;28;20054;-80
2022/01/28 05:06:09;;;;;;;14.75;3.10;;;5.70;99.90;;;;;;4951917;28;20082;-80
2022/01/28 05:25:02;;;;;;;15.35;4.38;;;;;;;;;;4967394;28;20051;-79
2022/01/28 05:27:17;;;;;;;20.95;5.32;;;;;;;;;;4967293;28;20098;-80
2022/01/28 05:29:43;;;;;;;17.38;4.40;;;;;;;;;;4968259;28;20542;-80
2022/01/28 05:32:10;;;;;;;20.08;4.80;;;;;;;;;;4968744;28;20929;-81
2022/01/28 05:34:36;;;;;;;15.75;4.30;;;;;;;;;;4966362;28;20447;-80
2022/01/28 05:37:08;;;;;;;14.45;4.22;;;;;;;;;;4972007;28;20067;-80
2022/01/28 05:39:35;;;;;;;16.10;4.28;;;;;;;;;;4967552;28;20086;-80
2022/01/28 05:42:01;;;;;;;17.55;4.15;;;;;;;;;;4972665;28;20043;-80
2022/01/28 05:44:27;;;;;;;21.40;5.28;;;;;;;;;;4964658;28;20111;-79
2022/01/28 05:46:56;;;;;;;18.95;4.60;;;;;;;;;;4970240;28;20087;-80
2022/01/28 05:49:23;;;;;;;17.02;4.60;;;;;;;;;;4965522;28;20043;-81
2022/01/28 05:51:49;;;;;;;21.25;4.55;;;;;;;;;;4970898;28;20057;-80
2022/01/28 05:54:15;;;;;;;14.68;4.20;;;;;;;;;;4967205;28;20042;-80
2022/01/28 05:56:41;;;;;;;13.63;3.75;;;;;;;;;;4967071;28;20495;-80
2022/01/28 05:59:08;;;;;;;18.20;4.28;;;;;;;;;;4965609;28;20047;-80
2022/01/28 06:01:34;;;;;;;12.68;3.45;;;;;;;;;;4963985;28;20049;-80
2022/01/28 06:04:00;;;;;;;13.32;4.20;;;;;;;;;;4970930;28;20042;-80
2022/01/28 06:06:26;;;;;;;14.23;4.28;;;;;;;;;;4970737;28;20047;-80
2022/01/28 06:08:53;;;;;;;15.25;4.20;;;;;;;;;;4951999;28;20047;-80
2022/01/28 06:11:20;;;;;;;13.23;4.05;;;;;;;;;;4966405;28;20098;-80
2022/01/28 06:13:46;;;;;;;22.70;4.97;;;;;;;;;;4951973;28;20167;-80
2022/01/28 06:16:14;;;;;;;15.48;4.55;;;;;;;;;;4954159;28;20047;-80
2022/01/28 06:18:40;;;;;;;13.30;4.88;;;;;;;;;;4967592;28;20114;-80
2022/01/28 06:21:06;;;;;;;17.30;5.30;;;;;;;;;;4959980;28;20122;-80
2022/01/28 06:23:32;;;;;;;17.27;3.75;;;;;;;;;;4964129;28;20051;-79
2022/01/28 06:25:58;;;;;;;14.00;4.13;;;;;;;;;;4972595;28;20043;-80
2022/01/28 06:28:27;;;;;;;16.45;4.38;;;;;;;;;;4963592;28;20063;-80
2022/01/28 06:30:54;;;;;;;13.15;3.60;;;;;;;;;;4964879;28;20043;-80
2022/01/28 06:33:21;;;;;;;15.45;3.85;;;;;;;;;;4956330;28;20462;-80
2022/01/28 06:35:47;;;;;;;16.92;3.80;;;;;;;;;;4949365;28;20519;-80
2022/01/28 06:38:13;;;;;;;13.93;3.67;;;;;;;;;;4965905;28;20395;-80
2022/01/28 06:40:39;;;;;;;15.35;4.30;;;;;;;;;;4968855;28;20054;-80
2022/01/28 06:43:08;;;;;;;16.63;3.90;;;;;;;;;;4970745;28;20042;-80
2022/01/28 06:45:34;;;;;;;15.02;3.42;;;;;;;;;;4970697;28;20035;-80
2022/01/28 06:48:00;;;;;;;13.57;3.58;;;;;;;;;;4978802;28;20043;-80
2022/01/28 06:50:26;;;;;;;19.50;3.67;;;;;;;;;;4968397;28;20101;-80
2022/01/28 06:52:52;;;;;;;18.58;4.20;;;;;;;;;;4951055;28;20050;-80
2022/01/28 06:55:18;;;;;;;13.52;3.10;;;;;;;;;;4971466;28;20062;-80
2022/01/28 06:57:45;;;;;;;12.73;3.70;;;;;;;;;;4971356;28;20141;-80
2022/01/28 07:00:11;;;;;;;12.75;4.10;;;;;;;;;;4966648;28;20086;-80
2022/01/28 07:02:38;;;;;;;14.02;3.80;;;;;;;;;;4967722;28;20054;-80
2022/01/28 07:05:05;;;;;;;10.85;3.85;;;;;;;;;;4968287;28;20054;-80
2022/01/28 07:07:31;;;;;;;16.38;4.40;;;;;;;;;;4974933;28;20047;-80
2022/01/28 07:09:57;;;;;;;12.35;4.00;;;;;;;;;;4955659;28;20055;-80
2022/01/28 07:12:23;;;;;;;15.82;4.07;;;;;;;;;;4970928;28;20054;-80
2022/01/28 07:14:49;;;;;;;14.05;4.20;;;;;;;;;;4952358;28;20038;-80
2022/01/28 07:17:16;;;;;;;19.60;4.07;;;;;;;;;;4971717;28;20081;-81
2022/01/28 07:19:42;;;;;;;15.63;4.35;;;;;;;;;;4971659;28;20115;-81
2022/01/28 07:22:09;;;;;;;12.40;3.60;;;;;;;;;;4971718;28;20043;-80
2022/01/28 07:24:35;;;;;;;15.02;3.47;;;;;;;;;;4972400;28;20487;-80
2022/01/28 07:27:01;;;;;;;14.43;3.60;;;;;;;;;;4956183;28;20137;-80
2022/01/28 07:29:30;;;;;;;9.20;3.75;;;;;;;;;;4951948;28;20065;-81
2022/01/28 07:31:56;;;;;;;12.35;3.35;;;;;;;;;;4973050;28;20042;-80
2022/01/28 07:34:22;;;;;;;12.15;3.70;;;;;;;;;;4975556;28;20146;-81
2022/01/28 07:36:48;;;;;;;12.15;3.70;;;;;;;;;;4971712;28;20053;-81
2022/01/28 07:39:14;;;;;;;11.00;3.45;;;;;;;;;;4967737;28;20093;-80
2022/01/28 07:41:40;;;;;;;14.02;4.15;;;;;;;;;;4970771;28;20081;-82
2022/01/28 07:44:07;;;;;;;13.25;3.75;;;;;;;;;;4949727;28;20534;-80
2022/01/28 07:46:33;;;;;;;14.52;3.40;;;;;;;;;;4967750;28;20491;-80
2022/01/28 07:48:59;;;;;;;14.55;4.35;;;;;;;;;;4969076;28;20074;-80
2022/01/28 07:51:25;;;;;;;15.10;4.35;;;;;;;;;;4973215;28;20387;-80
2022/01/28 07:53:51;;;;;;;14.23;3.90;;;;;;;;;;4973134;28;20519;-80
2022/01/28 07:56:18;;;;;;;15.98;4.32;;;;;;;;;;4955445;28;20059;-80
2022/01/28 07:58:44;;;;;;;12.25;3.55;;;;;;;;;;4971277;28;20062;-80
2022/01/28 08:01:10;;;;;;;11.55;4.10;;;;;;;;;;4971036;28;20398;-80
2022/01/28 08:03:36;;;;;;;15.65;4.28;;;;;;;;;;4971730;28;20046;-80
2022/01/28 08:06:02;;;;;;;13.15;4.60;;;;;;;;;;4957189;28;20054;-80
2022/01/28 08:08:30;;;;;;;15.18;4.18;;;;;;;;;;4952934;28;20136;-79
2022/01/28 08:10:56;;;;;;;12.68;3.67;;;;;;;;;;4954820;28;20446;-79
2022/01/28 08:13:22;;;;;;;15.15;3.67;;;;;;;;;;4949393;28;20142;-80
2022/01/28 08:15:49;;;;;;;18.83;4.53;;;;;;;;;;4971101;28;20130;-80
2022/01/28 08:18:15;;;;;;;12.25;3.92;;;;;;;;;;4967093;28;20049;-80
2022/01/28 08:20:43;;;;;;;13.38;3.88;;;;;;;;;;4953734;28;20092;-80
2022/01/28 08:23:09;;;;;;;17.88;4.05;;;;;;;;;;4948894;28;20561;-80
2022/01/28 08:25:35;;;;;;;16.17;4.28;;;;;;;;;;4952230;28;20083;-79
2022/01/28 08:28:02;;;;;;;13.25;4.13;;;;;;;;;;4949815;28;20097;-80
2022/01/28 08:30:29;;;;;;;15.23;4.50;;;;;;;;;;4969999;28;20069;-79
2022/01/28 08:32:55;;;;;;;14.57;3.65;;;;;;;;;;4963365;28;20411;-79
2022/01/28 08:35:28;;;;;;;13.68;4.50;;;;;;;;;;4951507;28;20499;-80
2022/01/28 08:37:56;;;;;;;14.77;3.85;;;;;;;;;;4948997;28;20051;-79
2022/01/28 08:40:23;;;;;;;13.77;3.65;;;;;;;;;;4972288;28;20574;-80
2022/01/28 08:42:49;;;;;;;15.20;3.78;;;;;;;;;;4964840;28;20054;-80
2022/01/28 08:45:15;;;;;;;12.25;3.50;;;;;;;;;;4956243;28;20053;-80
2022/01/28 08:47:41;;;;;;;14.25;4.15;;;;;;;;;;4967799;28;20481;-80
2022/01/28 08:50:08;;;;;;;14.50;3.80;;;;;;;;;;4950638;28;20050;-79
2022/01/28 08:52:34;;;;;;;12.43;3.60;;;;;;;;;;4950935;28;20090;-80
2022/01/28 08:55:01;;;;;;;12.50;3.78;;;;;;;;;;4968189;28;20050;-80
2022/01/28 08:57:26;;;;;;;12.25;3.55;;;;;;;;;;4966672;28;20399;-80
2022/01/28 08:59:52;;;;;;;13.60;3.47;;;;;;;;;;4971317;28;20053;-80
2022/01/28 09:02:19;;;;;;;14.70;3.55;;;;;;;;;;4948686;28;20126;-80
2022/01/28 09:04:46;;;;;;;12.48;3.63;;;;;;;;;;4966488;28;20101;-80
2022/01/28 09:07:12;;;;;;;15.73;4.55;;;;;;;;;;4969254;28;20093;-81
2022/01/28 09:09:48;;;;;;;13.10;3.53;;;;;;;;;;4969403;28;20089;-80
2022/01/28 09:14:58;;;;;;;14.32;3.65;;;;;;;;;;4950520;28;20058;-80
2022/01/28 09:17:25;;;;;;;12.38;3.88;;;;;;;;;;4948950;28;20102;-80
2022/01/28 09:19:51;;;;;;;15.45;4.13;;;;;;;;;;4949394;28;20490;-80
2022/01/28 09:22:17;;;;;;;16.10;4.07;;;;;;;;;;4970864;28;20163;-79
2022/01/28 09:24:43;;;;;;;13.32;4.30;;;;;;;;;;4968782;28;20056;-80
2022/01/28 09:27:09;;;;;;;18.63;4.35;;;;;;;;;;4949600;28;20530;-80
2022/01/28 09:29:35;;;;;;;12.43;3.92;;;;;;;;;;4951956;28;20089;-80
2022/01/28 09:32:02;;;;;;;15.98;4.93;;;;;;;;;;4950564;28;20086;-80
2022/01/28 09:34:28;;;;;;;13.63;3.67;;;;;;;;;;4952089;28;20047;-81
2022/01/28 09:36:54;;;;;;;17.48;3.70;;;;;;;;;;4953643;28;20046;-80
2022/01/28 09:39:20;;;;;;;12.85;3.75;;;;;;;;;;4968086;28;20070;-80
2022/01/28 09:41:48;;;;;;;14.75;3.83;;;;;;;;;;4949544;28;20542;-80
2022/01/28 09:44:16;;;;;;;13.25;4.25;;;;;;;;;;4969284;28;20049;-80
2022/01/28 09:46:42;;;;;;;15.00;4.13;;;;;;;;;;4970545;28;20038;-80
2022/01/28 09:49:08;;;;;;;16.38;4.60;;;;;;;;;;4952866;28;20046;-80
2022/01/28 09:51:34;;;;;;;11.88;3.70;;;;;;;;;;4950039;28;20376;-80
2022/01/28 09:54:00;;;;;;;13.65;4.07;;;;;;;;;;4952063;28;20085;-80
2022/01/28 09:56:26;;;;;;;15.02;4.47;;;;;;;;;;4970609;28;20523;-81
2022/01/28 09:58:52;;;;;;;16.85;4.05;;;;;;;;;;4950146;28;20042;-80
2022/01/28 10:01:18;;;;;;;16.65;4.45;;;;;;;;;;4971775;28;20031;-79
2022/01/28 10:03:44;;;;;;;14.73;4.43;;;;;;;;;;4953072;28;20145;-79
2022/01/28 10:06:10;;;;;;;18.55;4.10;;;;;;;;;;4949708;28;20042;-79
2022/01/28 10:08:37;;;;;;;19.95;4.93;;;;;;;;;;4951357;28;20133;-79
2022/01/28 10:11:11;;;;;;;15.13;4.10;;;;;;;;;;4945599;28;20094;-79
2022/01/28 10:16:09;;;;;;;14.18;4.30;;;;;;;;;;4949283;28;20055;-79
2022/01/28 10:18:38;;;;;;;14.55;3.58;;;;;;;;;;4966703;28;20035;-80
2022/01/28 10:21:14;;;;;;;17.13;5.03;;;;;;;;;;4965290;28;20043;-79
2022/01/28 10:23:41;;;;;;;13.77;4.40;;;;;;;;;;4954016;28;20105;-79
2022/01/28 10:26:07;;;;;;;17.33;3.95;;;;;;;;;;4958198;28;20077;-79
2022/01/28 10:28:33;;;;;;;13.18;4.60;;;;;;;;;;4961547;28;20491;-79
2022/01/28 10:31:03;;;;;;;16.35;3.92;;;;;;;;;;4956777;28;20051;-79
2022/01/28 10:33:29;;;;;;;12.40;3.42;;;;;;;;;;4956704;28;20053;-79
2022/01/28 10:35:56;;;;;;;15.02;3.90;;;;;;;;;;4957523;28;20190;-80
2022/01/28 10:38:28;;;;;;;14.82;4.30;;;;;;;;;;4954640;28;20055;-80
2022/01/28 10:41:08;;;;;;;15.48;4.15;;;;;;;;;;4968281;28;20047;-79
2022/01/28 10:43:41;;;;;;;10.77;3.60;;;;;;;;;;4953617;28;20050;-79
2022/01/28 10:46:07;;;;;;;14.65;4.72;;;;;;;;;;4956078;28;20062;-80
2022/01/28 10:48:47;;;;;;;16.52;4.05;;;;;;;;;;4955457;28;20130;-79
2022/01/28 10:51:13;;;;;;;16.58;4.15;;;;;;;;;;4973552;28;20046;-80
2022/01/28 10:53:39;;;;;;;12.20;3.75;;;;;;;;;;4956991;28;20043;-79
2022/01/28 10:56:11;;;;;;;12.32;3.88;;;;;;;;;;4956289;28;20050;-80
2022/01/28 10:58:38;;;;;;;12.57;3.42;;;;;;;;;;4957038;28;20055;-79
2022/01/28 11:01:12;;;;;;;11.60;3.83;;;;;;;;;;4952884;28;20523;-76
2022/01/28 11:03:40;;;;;;;13.10;4.00;;;;;;;;;;4973574;28;20035;-79
2022/01/28 11:06:06;;;;;;;15.18;4.03;;;;;;;;;;4953497;28;20047;-80
2022/01/28 11:08:34;;;;;;;15.48;4.22;;;;;;;;;;4970317;28;20502;-79
2022/01/28 11:11:00;;;;;;;11.02;3.50;;;;;;;;;;4957082;28;20486;-78
2022/01/28 11:13:30;;;;;;;15.80;3.83;;;;;;;;;;4957143;28;20054;-79
2022/01/28 11:15:57;;;;;;;15.75;3.70;;;;;;;;;;4971530;28;20433;-79
2022/01/28 11:18:23;;;;;;;13.13;3.80;;;;;;;;;;4953522;28;20125;-79
2022/01/28 11:20:51;;;;;;;14.35;3.67;;;;;;;;;;4954642;28;20483;-79
2022/01/28 11:23:20;;;;;;;18.33;3.53;;;;;;;;;;4958529;28;20129;-80
2022/01/28 11:26:05;;;;;;;12.93;3.40;;;;;;;;;;4957576;28;20046;-80
2022/01/28 11:28:51;;;;;;;17.77;3.83;;;;;;;;;;4949272;28;20047;-79
2022/01/28 11:31:37;;;;;;;14.27;4.00;;;;;;;;;;4974599;28;20444;-79
2022/01/28 11:34:14;;;;;;;12.18;3.72;;;;;;;;;;4948014;28;20042;-80
2022/01/28 11:36:40;;;;;;;14.85;4.22;;;;;;;;;;4948493;28;20042;-80
2022/01/28 11:39:18;;;;;;;11.20;4.03;;;;;;;;;;4947858;28;20502;-80
2022/01/28 11:42:04;;;;;;;19.10;4.05;;;;;;;;;;4971610;28;20055;-79
2022/01/28 11:44:44;;;;;;;16.92;4.28;;;;;;;;;;4951725;28;20042;-77
2022/01/28 11:47:14;;;;;;;11.52;4.05;;;;;;;;;;4949602;28;20073;-78
2022/01/28 11:49:59;;;;;;;15.65;4.65;;;;;;;;;;4971138;28;20047;-78
2022/01/28 11:52:32;;;;;;;14.98;4.05;;;;;;;;;;4967158;28;20141;-81
2022/01/28 11:55:17;;;;;;;17.02;4.20;;;;;;;;;;4968823;28;20049;-83
2022/01/28 11:57:52;;;;;;;14.45;3.50;;;;;;;;;;4973909;28;20047;-82
2022/01/28 12:00:43;;;;;;;14.05;3.85;;;;;;;;;;4951726;28;20046;-82
2022/01/28 12:03:17;;;;;;;15.85;4.05;;;;;;;;;;4943949;28;20066;-81
2022/01/28 12:05:43;;;;;;;13.75;3.65;;;;;;;;;;4953317;28;20050;-82
2022/01/28 12:08:10;;;;;;;14.57;3.50;;;;;;;;;;4967929;28;20057;-80
2022/01/28 12:10:41;;;;;;;14.75;3.50;;;;;;;;;;4950127;28;20398;-81
2022/01/28 12:13:12;;;;;;;11.40;3.65;;;;;;;;;;4972155;28;20593;-81
2022/01/28 12:16:03;;;;;;;13.48;3.05;;;;;;;;;;4968960;28;20105;-81
2022/01/28 12:18:48;;;;;;;10.15;3.55;;;;;;;;;;4970903;28;20553;-80
2022/01/28 12:21:18;;;;;;;12.15;3.47;;;;;;;;;;4964874;28;20043;-81
2022/01/28 12:23:45;;;;;;;12.70;3.47;;;;;;;;;;4968447;28;20083;-81
2022/01/28 12:26:14;;;;;;;12.40;3.40;;;;;;;;;;4949915;28;20101;-81
2022/01/28 12:28:53;;;;;;;10.82;3.10;;;;;;;;;;4963951;28;20047;-80
2022/01/28 12:31:20;;;;;;;11.38;3.08;;;;;;;;;;4966287;28;20126;-81
2022/01/28 12:33:48;;;;;;;11.30;3.38;;;;;;;;;;4953778;28;20074;-80
2022/01/28 12:36:17;;;;;;;11.27;2.90;;;;;;;;;;4952368;28;20047;-80
2022/01/28 12:38:55;;;;;;;10.07;3.20;;;;;;;;;;4951525;28;20046;-81
2022/01/28 12:41:23;;;;;;;11.88;3.78;;;;;;;;;;4965226;28;20065;-81
2022/01/28 12:43:49;;;;;;;11.55;3.38;;;;;;;;;;4969492;28;20153;-80
2022/01/28 12:46:15;;;;;;;15.75;3.50;;;;;;;;;;4949956;28;20082;-81
2022/01/28 12:48:48;;;;;;;10.63;3.10;;;;;;;;;;4952844;28;20055;-81
2022/01/28 12:51:14;;;;;;;12.38;3.10;;;;;;;;;;4967627;28;20053;-81
2022/01/28 12:53:42;;;;;;;8.73;3.00;;;;;;;;;;4970386;28;20461;-80
2022/01/28 12:56:09;;;;;;;9.52;2.88;;;;;;;;;;4968998;28;20064;-81
2022/01/28 12:58:35;;;;;;;9.05;2.80;;;;;;;;;;4967125;28;20558;-81
2022/01/28 13:01:11;;;;;;;13.65;3.08;;;;;;;;;;4970304;28;20138;-81
2022/01/28 13:03:45;;;;;;;11.50;3.00;;;;;;;;;;4969682;28;20043;-81
2022/01/28 13:06:23;;;;;;;8.95;3.00;;;;;;;;;;4969138;28;20070;-80
2022/01/28 13:08:49;;;;;;;9.38;2.33;;;;;;;;;;4967960;28;20065;-80
2022/01/28 13:11:16;;;;;;;8.20;2.42;;;;;;;;;;4966293;28;20045;-81
2022/01/28 13:13:48;;;;;;;8.95;2.60;;;;;;;;;;4970895;28;20368;-82
2022/01/28 13:16:14;;;;;;;8.40;2.63;;;;;;;;;;4949615;28;20047;-81
2022/01/28 13:18:57;;;;;;;13.18;3.33;;;;;;;;;;4971637;28;20043;-81
2022/01/28 13:21:23;;;;;;;7.60;2.47;;;;;;;;;;4971915;28;20130;-84
2022/01/28 13:23:49;;;;;;;7.60;2.38;;;;;;;;;;4954548;28;20047;-81
2022/01/28 13:26:15;;;;;;;6.65;2.47;;;;;;;;;;4971995;28;20133;-81
2022/01/28 13:28:41;;;;;;;8.05;3.20;;;;;;;;;;4971629;28;20051;-81
2022/01/28 13:31:07;;;;;;;8.75;2.53;;;;;;;;;;4955808;28;20158;-79
2022/01/28 13:33:34;;;;;;;9.45;2.90;;;;;;;;;;4972797;28;20118;-80
2022/01/28 13:36:01;;;;;;;10.60;2.70;;;;;;;;;;4971352;28;20134;-79
2022/01/28 13:38:34;;;;;;;10.18;2.53;;;;;;;;;;4968432;28;20046;-78
2022/01/28 13:41:00;;;;;;;9.60;2.90;;;;;;;;;;4968225;28;20047;-79
2022/01/28 13:43:28;;;;;;;8.50;2.47;;;;;;;;;;4966288;28;20061;-80
2022/01/28 13:45:58;;;;;;;7.22;2.60;;;;;;;;;;4965761;28;20097;-81
2022/01/28 13:48:34;;;;;;;7.70;2.55;;;;;;;;;;4947855;28;20051;-79
2022/01/28 13:51:16;;;;;;;5.45;2.28;;;;;;;;;;4970347;28;20398;-81
2022/01/28 13:56:32;;;;;;;8.40;2.60;;;;;;;;;;4969521;28;20051;-79
2022/01/28 13:58:58;;;;;;;6.72;2.10;;;;;;;;;;4971280;28;20051;-79
2022/01/28 14:01:25;;;;;;;6.38;2.20;;;;;;;;;;4965874;28;20062;-79
2022/01/28 14:03:55;;;;;;;8.95;2.40;;;;;;;;;;4952277;28;20050;-79
2022/01/28 14:06:23;;;;;;;7.25;2.15;;;;;;;;;;4952914;28;20054;-79
2022/01/28 14:08:52;;;;;;;8.40;2.40;;;;;;;;;;4957179;28;20054;-78
2022/01/28 14:11:33;;;;;;;9.15;2.80;;;;;;;;;;4972267;28;20050;-79
2022/01/28 14:14:15;;;;;;;4.85;1.90;;;;;;;;;;4971231;28;20090;-78
2022/01/28 14:16:42;;;;;;;8.38;2.38;;;;;;;;;;4953223;28;20137;-78
2022/01/28 14:19:08;;;;;;;7.40;2.40;;;;;;;;;;4967987;28;20058;-79
2022/01/28 14:21:34;;;;;;;7.57;2.28;;;;;;;;;;4970224;28;20516;-79
2022/01/28 14:24:00;;;;;;;7.40;2.33;;;;;;;;;;4953817;28;20051;-79
2022/01/28 14:26:26;;;;;;;6.80;2.40;;;;;;;;;;4966660;28;20047;-80
2022/01/28 14:31:24;;;;;;;6.45;2.30;;;;;;;;;;4967998;28;20062;-80
2022/01/28 14:33:51;;;;;;;5.35;2.00;;;;;;;;;;4951372;28;20068;-79
2022/01/28 14:36:17;;;;;;;7.45;2.17;;;;;;;;;;4967568;28;20051;-81
2022/01/28 14:38:46;;;;;;;7.22;2.92;;;;;;;;;;4964728;28;20482;-80
2022/01/28 14:41:12;;;;;;;6.80;2.05;;;;;;;;;;4966285;28;20052;-81
2022/01/28 14:43:38;;;;;;;6.60;2.30;;;;;;;;;;4952734;28;20047;-78
2022/01/28 14:46:04;;;;;;;6.55;2.28;;;;;;;;;;4966374;28;20050;-78
2022/01/28 14:48:31;;;;;;;6.05;2.13;;;;;;;;;;4948215;28;20467;-79
2022/01/28 14:50:57;;;;;;;6.93;2.30;;;;;;;;;;4949165;28;20407;-79
2022/01/28 14:53:23;;;;;;;7.00;2.22;;;;;;;;;;4947601;28;20043;-79
2022/01/28 14:55:49;;;;;;;6.10;2.15;;;;;;;;;;4965362;28;20036;-79
2022/01/28 14:58:16;;;;;;;9.02;2.30;;;;;;;;;;4952079;28;20046;-79
2022/01/28 15:00:42;;;;;;;7.35;2.50;;;8.10;99.90;;;;;;4948895;28;20373;-79
2022/01/28 15:03:10;;;;;;;6.63;2.35;;;8.10;99.90;;;;;;4969277;28;20049;-79
2022/01/28 15:05:37;;;;;;;7.55;2.75;;;;;;;;;;4965541;28;20074;-78
2022/01/28 15:08:08;;;;;;;6.40;2.80;;;7.70;99.90;;;;;;4968542;28;20051;-79
2022/01/28 15:10:35;;;;;;;6.57;2.10;;;8.10;99.90;;;;;;4970769;28;20046;-78
2022/01/28 15:13:01;;;;;;;7.57;2.22;;;7.70;99.90;;;;;;4968321;28;20395;-80
2022/01/28 15:15:27;;;;;;;5.05;2.05;;;7.70;99.90;;;;;;4964648;28;20990;-79
2022/01/28 15:17:53;;;;;;;10.18;2.42;;;7.70;99.90;;;;;;4954099;28;20034;-80
2022/01/28 15:20:18;;;;;;;9.07;2.75;;;7.70;99.90;;;;;;4954610;28;20538;-78
2022/01/28 15:22:44;;;;;;;11.43;2.67;;;7.60;99.90;;;;;;4974940;28;20406;-79
2022/01/28 15:25:10;;;;;;;6.97;2.35;;;7.60;99.90;;;;;;4955183;28;20463;-79
2022/01/28 15:27:36;;;;;;;4.80;2.30;;;7.50;99.90;;;;;;4955766;28;20051;-78
2022/01/28 15:30:07;;;;;;;8.50;2.42;;;7.50;99.90;;;;;;4954593;28;20510;-80
2022/01/28 15:38:11;;;;;;;5.00;2.00;;;7.40;99.90;;;;;;4907644;29;20047;-77
2022/01/28 15:40:36;;;;;;;7.07;2.38;;;7.40;99.90;;;;;;4942580;28;20062;-79
2022/01/28 15:43:02;;;;;;;9.05;2.30;;;7.40;99.90;;;;;;4954415;28;20476;-79
2022/01/28 15:45:33;;;;;;;4.72;2.55;;;7.30;99.90;;;;;;4950667;29;20503;-79
2022/01/28 15:47:59;;;;;;;6.82;2.60;;;7.30;99.90;;;;;;4954228;29;20086;-79
2022/01/28 15:50:27;;;;;;;8.20;2.45;;;7.30;99.90;;;;;;4950832;28;20130;-79
2022/01/28 15:52:56;;;;;;;7.97;2.50;;;7.20;99.90;;;;;;4948479;28;20043;-79
2022/01/28 15:55:22;;;;;;;9.00;3.30;;;7.20;99.90;;;;;;4942922;28;20134;-79